createdAt,value
2022-11-14T00:00:00.798Z,51.325733
2022-11-14T00:01:00.774Z,51.325714
2022-11-14T00:02:00.758Z,51.325718
2022-11-14T00:03:00.853Z,51.325722
2022-11-14T00:04:00.721Z,51.325741
2022-11-14T00:05:00.706Z,51.325745
2022-11-14T00:06:00.777Z,51.325741
2022-11-14T00:07:00.720Z,51.325752
2022-11-14T00:08:00.700Z,51.325771
2022-11-14T00:09:00.641Z,51.325775
2022-11-14T00:10:00.636Z,51.325760
2022-11-14T00:11:00.619Z,51.325775
2022-11-14T00:12:00.582Z,51.325745
2022-11-14T00:13:00.591Z,51.325752
2022-11-14T00:14:00.585Z,51.325741
2022-11-14T00:15:00.542Z,51.325733
2022-11-14T00:16:00.513Z,51.325718
2022-11-14T00:17:00.507Z,51.325764
2022-11-14T00:18:00.512Z,51.325752
2022-11-14T00:19:32.346Z,51.325794
2022-11-14T00:20:00.890Z,51.325779
2022-11-14T00:21:00.800Z,51.325775
2022-11-14T00:22:00.555Z,51.325787
2022-11-14T00:23:00.432Z,51.325756
2022-11-14T00:24:00.768Z,51.325741
2022-11-14T00:25:00.376Z,51.325718
2022-11-14T00:26:00.426Z,51.325748
2022-11-14T00:27:00.347Z,51.325745
2022-11-14T00:28:00.419Z,51.325745
2022-11-14T00:29:00.705Z,51.325741
2022-11-14T00:30:00.284Z,51.325737
2022-11-14T00:31:00.283Z,51.325737
2022-11-14T00:32:00.252Z,51.325726
2022-11-14T00:33:00.310Z,51.325699
2022-11-14T00:34:00.454Z,51.325741
2022-11-14T00:35:00.599Z,51.325760
2022-11-14T00:36:00.175Z,51.325783
2022-11-14T00:37:00.241Z,51.325748
2022-11-14T00:38:00.239Z,51.325737
2022-11-14T00:39:00.134Z,51.325714
2022-11-14T00:40:00.112Z,51.325699
2022-11-14T00:41:00.104Z,51.325718
2022-11-14T00:42:00.128Z,51.325718
2022-11-14T00:43:00.113Z,51.325714
2022-11-14T00:44:00.046Z,51.325745
2022-11-14T00:45:00.307Z,51.325619
2022-11-14T00:46:00.025Z,51.325695
2022-11-14T00:46:59.995Z,51.325775
2022-11-14T00:48:00.018Z,51.325752
2022-11-14T00:48:59.964Z,51.325817
2022-11-14T00:50:00.187Z,51.325748
2022-11-14T00:50:59.925Z,51.325764
2022-11-14T00:52:00.297Z,51.325703
2022-11-14T00:53:00.479Z,51.325741
2022-11-14T00:54:00.010Z,51.325752
2022-11-14T00:55:00.426Z,51.325714
2022-11-14T00:55:59.840Z,51.325672
2022-11-14T00:56:59.960Z,51.325668
2022-11-14T00:58:04.090Z,51.325710
2022-11-14T00:59:00.134Z,51.325623
2022-11-14T00:59:59.789Z,51.325481
2022-11-14T01:00:59.790Z,51.325581
2022-11-14T01:01:59.979Z,51.325695
2022-11-14T01:02:59.962Z,51.325832
2022-11-14T01:04:00.420Z,51.325745
2022-11-14T01:04:59.688Z,51.325806
2022-11-14T01:05:59.904Z,51.325809
2022-11-14T01:06:59.856Z,51.325809
2022-11-14T01:08:00.183Z,51.325790
2022-11-14T01:08:59.663Z,51.325760
2022-11-14T01:10:01.827Z,51.325756
2022-11-14T01:11:02.689Z,51.325787
2022-11-14T01:11:59.566Z,51.325779
2022-11-14T01:12:59.770Z,51.325829
2022-11-14T01:14:01.753Z,51.325825
2022-11-14T01:14:59.519Z,51.325687
2022-11-14T01:15:59.512Z,51.325710
2022-11-14T01:16:59.554Z,51.325699
2022-11-14T01:17:59.503Z,51.325802
2022-11-14T01:18:59.620Z,51.325790
2022-11-14T01:19:59.432Z,51.325790
2022-11-14T01:20:59.413Z,51.325825
2022-11-14T01:22:04.821Z,51.325802
2022-11-14T01:23:01.410Z,51.325771
2022-11-14T01:23:59.363Z,51.325794
2022-11-14T01:24:59.902Z,51.325794
2022-11-14T01:25:59.400Z,51.325752
2022-11-14T01:26:59.649Z,51.325825
2022-11-14T01:27:59.324Z,51.325790
2022-11-14T01:29:01.830Z,51.325790
2022-11-14T01:29:59.258Z,51.325813
2022-11-14T01:30:59.462Z,51.325779
2022-11-14T01:31:59.226Z,51.325802
2022-11-14T01:32:59.236Z,51.325832
2022-11-14T01:33:59.186Z,51.325718
2022-11-14T01:34:59.753Z,51.325703
2022-11-14T01:35:59.604Z,51.325790
2022-11-14T01:36:59.140Z,51.325832
2022-11-14T01:37:59.150Z,51.325840
2022-11-14T01:38:59.115Z,51.325844
2022-11-14T01:39:59.406Z,51.325802
2022-11-14T01:40:59.070Z,51.325764
2022-11-14T01:41:59.130Z,51.325737
2022-11-14T01:42:59.980Z,51.325771
2022-11-14T01:43:59.022Z,51.325779
2022-11-14T01:44:59.006Z,51.325787
2022-11-14T01:45:59.927Z,51.325726
2022-11-14T01:46:58.978Z,51.325684
2022-11-14T01:47:58.983Z,51.325806
2022-11-14T01:48:59.629Z,51.325760
2022-11-14T01:49:58.925Z,51.325745
2022-11-14T01:50:59.396Z,51.325832
2022-11-14T01:51:58.891Z,51.325771
2022-11-14T01:53:00.118Z,51.325733
2022-11-14T01:53:58.857Z,51.325729
2022-11-14T01:54:58.896Z,51.325775
2022-11-14T01:55:58.816Z,51.325829
2022-11-14T01:56:58.789Z,51.325745
2022-11-14T01:57:59.498Z,51.325779
2022-11-14T01:58:58.748Z,51.325741
2022-11-14T01:59:59.392Z,51.325752
2022-11-14T02:00:58.761Z,51.325809
2022-11-14T02:01:58.947Z,51.325745
2022-11-14T02:02:58.732Z,51.325722
2022-11-14T02:03:58.665Z,51.325714
2022-11-14T02:04:58.644Z,51.325668
2022-11-14T02:05:58.818Z,51.325764
2022-11-14T02:06:58.643Z,51.325745
2022-11-14T02:07:58.897Z,51.325729
2022-11-14T02:08:58.568Z,51.325703
2022-11-14T02:09:58.564Z,51.325813
2022-11-14T02:10:58.688Z,51.325806
2022-11-14T02:11:58.526Z,51.325783
2022-11-14T02:12:58.820Z,51.325806
2022-11-14T02:13:58.560Z,51.325806
2022-11-14T02:14:58.791Z,51.325729
2022-11-14T02:15:58.467Z,51.325729
2022-11-14T02:17:27.431Z,51.325748
2022-11-14T02:18:01.460Z,51.325775
2022-11-14T02:18:58.408Z,51.325764
2022-11-14T02:20:03.621Z,51.325783
2022-11-14T02:21:00.390Z,51.325745
2022-11-14T02:21:58.518Z,51.325706
2022-11-14T02:22:58.382Z,51.325745
2022-11-14T02:23:58.789Z,51.325722
2022-11-14T02:24:58.304Z,51.325726
2022-11-14T02:25:59.025Z,51.325771
2022-11-14T02:26:58.270Z,51.325798
2022-11-14T02:27:58.905Z,51.325787
2022-11-14T02:28:58.235Z,51.325760
2022-11-14T02:29:58.292Z,51.325745
2022-11-14T02:30:58.196Z,51.325733
2022-11-14T02:31:58.298Z,51.325745
2022-11-14T02:33:13.987Z,51.325783
2022-11-14T02:34:00.145Z,51.325752
2022-11-14T02:34:58.132Z,51.325779
2022-11-14T02:35:58.113Z,51.325760
2022-11-14T02:36:58.536Z,51.325752
2022-11-14T02:37:58.106Z,51.325787
2022-11-14T02:38:58.071Z,51.325775
2022-11-14T02:39:58.045Z,51.325741
2022-11-14T02:40:58.571Z,51.325718
2022-11-14T02:41:58.109Z,51.325634
2022-11-14T02:42:58.023Z,51.325726
2022-11-14T02:43:57.977Z,51.325745
2022-11-14T02:44:58.742Z,51.325760
2022-11-14T02:46:02.792Z,51.325733
2022-11-14T02:47:00.028Z,51.325790
2022-11-14T02:47:58.810Z,51.325829
2022-11-14T02:48:57.898Z,51.325771
2022-11-14T02:49:57.870Z,51.325768
2022-11-14T02:50:57.855Z,51.325790
2022-11-14T02:51:58.887Z,51.325760
2022-11-14T02:52:57.852Z,51.325779
2022-11-14T02:53:58.740Z,51.325741
2022-11-14T02:54:57.784Z,51.325733
2022-11-14T02:55:57.903Z,51.325760
2022-11-14T02:56:58.344Z,51.325745
2022-11-14T02:57:57.758Z,51.325737
2022-11-14T02:58:58.117Z,51.325752
2022-11-14T02:59:57.690Z,51.325764
2022-11-14T03:01:19.655Z,51.325760
2022-11-14T03:01:59.823Z,51.325729
2022-11-14T03:02:58.828Z,51.325745
2022-11-14T03:03:57.939Z,51.325771
2022-11-14T03:04:57.788Z,51.325783
2022-11-14T03:05:57.630Z,51.325752
2022-11-14T03:06:57.621Z,51.325748
2022-11-14T03:07:58.300Z,51.325726
2022-11-14T03:08:57.534Z,51.325768
2022-11-14T03:10:00.245Z,51.325764
2022-11-14T03:10:57.508Z,51.325768
2022-11-14T03:11:57.520Z,51.325737
2022-11-14T03:12:57.504Z,51.325737
2022-11-14T03:13:57.469Z,51.325684
2022-11-14T03:14:57.442Z,51.325699
2022-11-14T03:15:57.422Z,51.325695
2022-11-14T03:16:58.405Z,51.325783
2022-11-14T03:17:57.501Z,51.325829
2022-11-14T03:18:57.368Z,51.325787
2022-11-14T03:19:57.344Z,51.325665
2022-11-14T03:21:00.186Z,51.325726
2022-11-14T03:21:57.310Z,51.325733
2022-11-14T03:22:58.049Z,51.325718
2022-11-14T03:23:57.278Z,51.325706
2022-11-14T03:24:57.274Z,51.325722
2022-11-14T03:25:58.316Z,51.325722
2022-11-14T03:26:57.237Z,51.325760
2022-11-14T03:27:58.103Z,51.325806
2022-11-14T03:28:57.200Z,51.325779
2022-11-14T03:29:58.376Z,51.325764
2022-11-14T03:30:57.164Z,51.325745
2022-11-14T03:31:57.148Z,51.325745
2022-11-14T03:32:57.514Z,51.325741
2022-11-14T03:33:57.410Z,51.325722
2022-11-14T03:34:57.107Z,51.325752
2022-11-14T03:35:57.087Z,51.325748
2022-11-14T03:36:57.063Z,51.325768
2022-11-14T03:37:57.069Z,51.325748
2022-11-14T03:38:57.024Z,51.325748
2022-11-14T03:39:57.039Z,51.325729
2022-11-14T03:40:57.008Z,51.325729
2022-11-14T03:41:56.991Z,51.325726
2022-11-14T03:42:59.240Z,51.325714
2022-11-14T03:43:56.946Z,51.325741
2022-11-14T03:44:56.950Z,51.325756
2022-11-14T03:45:56.907Z,51.325741
2022-11-14T03:46:56.879Z,51.325741
2022-11-14T03:47:57.195Z,51.325722
2022-11-14T03:48:56.870Z,51.325714
2022-11-14T03:49:56.897Z,51.325722
2022-11-14T03:50:56.819Z,51.325722
2022-11-14T03:51:56.865Z,51.325733
2022-11-14T03:52:57.619Z,51.325768
2022-11-14T03:53:56.755Z,51.325748
2022-11-14T03:54:56.745Z,51.325718
2022-11-14T03:55:56.719Z,51.325714
2022-11-14T03:56:56.727Z,51.325718
2022-11-14T03:57:56.944Z,51.325714
2022-11-14T03:58:56.680Z,51.325756
2022-11-14T03:59:56.665Z,51.325794
2022-11-14T04:00:56.693Z,51.325783
2022-11-14T04:01:56.625Z,51.325745
2022-11-14T04:02:56.633Z,51.325737
2022-11-14T04:03:56.587Z,51.325729
2022-11-14T04:04:56.579Z,51.325714
2022-11-14T04:05:56.965Z,51.325722
2022-11-14T04:06:56.562Z,51.325714
2022-11-14T04:07:56.561Z,51.325714
2022-11-14T04:08:56.507Z,51.325733
2022-11-14T04:09:56.482Z,51.325748
2022-11-14T04:10:56.477Z,51.325745
2022-11-14T04:11:56.469Z,51.325718
2022-11-14T04:12:56.479Z,51.325722
2022-11-14T04:13:56.419Z,51.325737
2022-11-14T04:14:56.400Z,51.325756
2022-11-14T04:15:56.397Z,51.325722
2022-11-14T04:16:56.362Z,51.325726
2022-11-14T04:17:57.102Z,51.325668
2022-11-14T04:18:56.576Z,51.325726
2022-11-14T04:19:56.321Z,51.325771
2022-11-14T04:20:57.869Z,51.325733
2022-11-14T04:21:56.345Z,51.325718
2022-11-14T04:22:56.486Z,51.325752
2022-11-14T04:23:56.271Z,51.325806
2022-11-14T04:24:56.221Z,51.325729
2022-11-14T04:25:56.263Z,51.325722
2022-11-14T04:26:56.193Z,51.325726
2022-11-14T04:27:56.169Z,51.325695
2022-11-14T04:28:56.973Z,51.325779
2022-11-14T04:29:58.178Z,51.325760
2022-11-14T04:30:56.121Z,51.325714
2022-11-14T04:31:56.100Z,51.325737
2022-11-14T04:32:56.076Z,51.325783
2022-11-14T04:33:58.026Z,51.325764
2022-11-14T04:34:56.043Z,51.325775
2022-11-14T04:35:56.645Z,51.325775
2022-11-14T04:36:56.002Z,51.325760
2022-11-14T04:37:56.895Z,51.325790
2022-11-14T04:38:59.166Z,51.325768
2022-11-14T04:39:56.961Z,51.325687
2022-11-14T04:40:57.826Z,51.325661
2022-11-14T04:41:57.056Z,51.325714
2022-11-14T04:42:55.921Z,51.325634
2022-11-14T04:43:56.548Z,51.325676
2022-11-14T04:44:56.797Z,51.325714
2022-11-14T04:45:55.875Z,51.325710
2022-11-14T04:46:55.845Z,51.325752
2022-11-14T04:47:55.816Z,51.325729
2022-11-14T04:48:55.844Z,51.325695
2022-11-14T04:49:55.787Z,51.325718
2022-11-14T04:50:56.056Z,51.325748
2022-11-14T04:51:57.083Z,51.325748
2022-11-14T04:52:56.732Z,51.325703
2022-11-14T04:53:55.813Z,51.325703
2022-11-14T04:54:55.695Z,51.325710
2022-11-14T04:55:55.697Z,51.325668
2022-11-14T04:56:55.661Z,51.325710
2022-11-14T04:57:55.730Z,51.325790
2022-11-14T04:58:55.926Z,51.325764
2022-11-14T04:59:55.652Z,51.325745
2022-11-14T05:00:55.653Z,51.325760
2022-11-14T05:01:55.635Z,51.325722
2022-11-14T05:02:55.563Z,51.325714
2022-11-14T05:03:55.574Z,51.325737
2022-11-14T05:04:55.539Z,51.325741
2022-11-14T05:05:55.512Z,51.325745
2022-11-14T05:06:55.529Z,51.325790
2022-11-14T05:07:55.477Z,51.325802
2022-11-14T05:08:55.480Z,51.325848
2022-11-14T05:09:55.438Z,51.325783
2022-11-14T05:10:55.422Z,51.325775
2022-11-14T05:11:55.409Z,51.325737
2022-11-14T05:12:55.419Z,51.325756
2022-11-14T05:13:55.795Z,51.325771
2022-11-14T05:14:55.352Z,51.325790
2022-11-14T05:15:55.329Z,51.325817
2022-11-14T05:16:56.312Z,51.325790
2022-11-14T05:17:55.297Z,51.325771
2022-11-14T05:18:55.308Z,51.325756
2022-11-14T05:19:55.256Z,51.325752
2022-11-14T05:20:55.256Z,51.325752
2022-11-14T05:21:55.226Z,51.325817
2022-11-14T05:22:55.221Z,51.325733
2022-11-14T05:23:55.223Z,51.325794
2022-11-14T05:24:55.180Z,51.325787
2022-11-14T05:25:58.743Z,51.325783
2022-11-14T05:26:56.145Z,51.325771
2022-11-14T05:27:55.125Z,51.325783
2022-11-14T05:28:55.137Z,51.325787
2022-11-14T05:29:55.086Z,51.325760
2022-11-14T05:30:55.076Z,51.325733
2022-11-14T05:31:55.053Z,51.325764
2022-11-14T05:32:55.032Z,51.325752
2022-11-14T05:33:55.909Z,51.325825
2022-11-14T05:34:54.994Z,51.325768
2022-11-14T05:35:54.983Z,51.325756
2022-11-14T05:36:54.958Z,51.325748
2022-11-14T05:37:58.902Z,51.325737
2022-11-14T05:38:56.964Z,51.325752
2022-11-14T05:39:54.901Z,51.325768
2022-11-14T05:40:54.888Z,51.325790
2022-11-14T05:41:54.889Z,51.325790
2022-11-14T05:42:54.846Z,51.325771
2022-11-14T05:43:54.875Z,51.325768
2022-11-14T05:44:54.882Z,51.325756
2022-11-14T05:45:55.217Z,51.325768
2022-11-14T05:46:54.785Z,51.325756
2022-11-14T05:47:54.788Z,51.325848
2022-11-14T05:48:55.006Z,51.325783
2022-11-14T05:49:54.752Z,51.325752
2022-11-14T05:50:54.719Z,51.325714
2022-11-14T05:51:54.714Z,51.325741
2022-11-14T05:52:54.784Z,51.325756
2022-11-14T05:53:54.706Z,51.325764
2022-11-14T05:54:54.722Z,51.325806
2022-11-14T05:55:54.650Z,51.325829
2022-11-14T05:56:54.600Z,51.325817
2022-11-14T05:57:54.603Z,51.325783
2022-11-14T05:58:54.603Z,51.325787
2022-11-14T05:59:54.598Z,51.325768
2022-11-14T06:00:54.716Z,51.325741
2022-11-14T06:01:54.580Z,51.325741
2022-11-14T06:02:54.503Z,51.325737
2022-11-14T06:03:54.543Z,51.325752
2022-11-14T06:04:55.533Z,51.325756
2022-11-14T06:05:54.546Z,51.325745
2022-11-14T06:06:54.490Z,51.325775
2022-11-14T06:07:54.426Z,51.325779
2022-11-14T06:08:54.438Z,51.325748
2022-11-14T06:09:54.378Z,51.325787
2022-11-14T06:10:54.375Z,51.325760
2022-11-14T06:11:54.347Z,51.325764
2022-11-14T06:12:54.350Z,51.325760
2022-11-14T06:13:54.355Z,51.325771
2022-11-14T06:14:54.308Z,51.325783
2022-11-14T06:15:54.288Z,51.325733
2022-11-14T06:16:54.260Z,51.325718
2022-11-14T06:17:55.241Z,51.325790
2022-11-14T06:25:29.881Z,51.325775
2022-11-14T06:26:30.037Z,51.325748
2022-11-14T06:27:29.875Z,51.325760
2022-11-14T06:28:30.255Z,51.325798
2022-11-14T06:29:35.232Z,51.325760
2022-11-14T06:30:31.800Z,51.325768
2022-11-14T06:31:29.776Z,51.325760
2022-11-14T06:32:29.776Z,51.325764
2022-11-14T06:33:29.805Z,51.325745
2022-11-14T06:34:29.723Z,51.325745
2022-11-14T06:35:29.689Z,51.325733
2022-11-14T06:36:29.686Z,51.325733
2022-11-14T06:37:33.565Z,51.325737
2022-11-14T06:38:31.013Z,51.325691
2022-11-14T06:39:29.625Z,51.325756
2022-11-14T06:40:29.610Z,51.325741
2022-11-14T06:41:29.600Z,51.325752
2022-11-14T06:42:29.630Z,51.325741
2022-11-14T06:43:29.609Z,51.325737
2022-11-14T06:44:31.214Z,51.325733
2022-11-14T06:45:30.574Z,51.325714
2022-11-14T06:46:29.678Z,51.325748
2022-11-14T06:47:29.510Z,51.325775
2022-11-14T06:48:29.830Z,51.325768
2022-11-14T06:49:29.459Z,51.325752
2022-11-14T06:50:29.439Z,51.325706
2022-11-14T06:51:29.438Z,51.325714
2022-11-14T06:52:29.415Z,51.325741
2022-11-14T06:53:29.447Z,51.325741
2022-11-14T06:54:29.390Z,51.325771
2022-11-14T06:55:29.358Z,51.325817
2022-11-14T06:56:29.353Z,51.325832
2022-11-14T06:57:29.350Z,51.325844
2022-11-14T06:58:29.831Z,51.325726
2022-11-14T06:59:29.284Z,51.325718
2022-11-14T07:00:29.280Z,51.325691
2022-11-14T07:01:29.276Z,51.325638
2022-11-14T07:02:29.420Z,51.325649
2022-11-14T07:03:29.348Z,51.325722
2022-11-14T07:04:29.229Z,51.325703
2022-11-14T07:05:29.240Z,51.325714
2022-11-14T07:06:29.170Z,51.325706
2022-11-14T07:07:29.254Z,51.325733
2022-11-14T07:08:29.153Z,51.325710
2022-11-14T07:09:29.136Z,51.325714
2022-11-14T07:10:29.130Z,51.325722
2022-11-14T07:11:29.127Z,51.325764
2022-11-14T07:12:29.068Z,51.325733
2022-11-14T07:13:29.073Z,51.325741
2022-11-14T07:14:29.040Z,51.325691
2022-11-14T07:15:29.011Z,51.325649
2022-11-14T07:16:28.999Z,51.325703
2022-11-14T07:17:31.342Z,51.325771
2022-11-14T07:18:30.352Z,51.325783
2022-11-14T07:19:28.989Z,51.325729
2022-11-14T07:20:28.925Z,51.325729
2022-11-14T07:21:28.920Z,51.325748
2022-11-14T07:22:28.895Z,51.325756
2022-11-14T07:23:28.918Z,51.325741
2022-11-14T07:24:28.889Z,51.325775
2022-11-14T07:25:28.848Z,51.325756
2022-11-14T07:26:29.008Z,51.325748
2022-11-14T07:27:28.850Z,51.325722
2022-11-14T07:28:29.192Z,51.325729
2022-11-14T07:29:28.815Z,51.325714
2022-11-14T07:30:28.824Z,51.325706
2022-11-14T07:31:28.950Z,51.325714
2022-11-14T07:32:28.747Z,51.325726
2022-11-14T07:33:28.872Z,51.325706
2022-11-14T07:34:28.756Z,51.325733
2022-11-14T07:35:28.667Z,51.325726
2022-11-14T07:36:28.710Z,51.325718
2022-11-14T07:37:28.683Z,51.325695
2022-11-14T07:38:28.974Z,51.325695
2022-11-14T07:39:28.619Z,51.325699
2022-11-14T07:40:28.636Z,51.325691
2022-11-14T07:41:28.609Z,51.325699
2022-11-14T07:42:28.571Z,51.325672
2022-11-14T07:43:28.614Z,51.325657
2022-11-14T07:44:28.528Z,51.325642
2022-11-14T07:45:28.527Z,51.325668
2022-11-14T07:46:28.477Z,51.325699
2022-11-14T07:47:28.503Z,51.325680
2022-11-14T07:48:28.968Z,51.325718
2022-11-14T07:49:28.446Z,51.325726
2022-11-14T07:50:28.491Z,51.325699
2022-11-14T07:51:28.399Z,51.325710
2022-11-14T07:52:28.404Z,51.325699
2022-11-14T07:53:28.405Z,51.325676
2022-11-14T07:54:28.338Z,51.325665
2022-11-14T07:55:28.377Z,51.325684
2022-11-14T07:56:28.310Z,51.325672
2022-11-14T07:57:28.303Z,51.325680
2022-11-14T07:58:28.606Z,51.325668
2022-11-14T07:59:28.251Z,51.325695
2022-11-14T08:00:28.286Z,51.325695
2022-11-14T08:01:28.263Z,51.325680
2022-11-14T08:02:28.225Z,51.325676
2022-11-14T08:03:28.230Z,51.325672
2022-11-14T08:04:28.199Z,51.325684
2022-11-14T08:05:28.170Z,51.325630
2022-11-14T08:06:28.144Z,51.325672
2022-11-14T08:07:28.208Z,51.325691
2022-11-14T08:08:28.592Z,51.325653
2022-11-14T08:09:28.089Z,51.325687
2022-11-14T08:10:33.287Z,51.325687
2022-11-14T08:11:35.225Z,51.325680
2022-11-14T08:12:30.047Z,51.325665
2022-11-14T08:13:33.209Z,51.325687
2022-11-14T08:14:30.016Z,51.325562
2022-11-14T08:15:28.006Z,51.325550
2022-11-14T08:16:28.007Z,51.325684
2022-11-14T08:17:27.997Z,51.325550
2022-11-14T08:18:28.302Z,51.325661
2022-11-14T08:19:27.942Z,51.325703
2022-11-14T08:20:27.952Z,51.325680
2022-11-14T08:21:27.893Z,51.325733
2022-11-14T08:22:28.084Z,51.325756
2022-11-14T08:23:28.000Z,51.325787
2022-11-14T08:24:27.887Z,51.325703
2022-11-14T08:25:27.879Z,51.325733
2022-11-14T08:26:32.945Z,51.325802
2022-11-14T08:27:29.829Z,51.325718
2022-11-14T08:28:28.270Z,51.325771
2022-11-14T08:29:27.874Z,51.325802
2022-11-14T08:30:27.786Z,51.325851
2022-11-14T08:31:27.783Z,51.325863
2022-11-14T08:32:27.748Z,51.325787
2022-11-14T08:33:27.773Z,51.325798
2022-11-14T08:34:27.767Z,51.325775
2022-11-14T08:35:27.709Z,51.325752
2022-11-14T08:36:27.705Z,51.325760
2022-11-14T08:37:27.688Z,51.325756
2022-11-14T08:38:27.944Z,51.325760
2022-11-14T08:39:27.683Z,51.325764
2022-11-14T08:40:27.657Z,51.325729
2022-11-14T08:41:27.638Z,51.325748
2022-11-14T08:42:27.614Z,51.325741
2022-11-14T08:43:27.608Z,51.325760
2022-11-14T08:44:27.622Z,51.325691
2022-11-14T08:45:27.559Z,51.325760
2022-11-14T08:46:27.549Z,51.325748
2022-11-14T08:47:27.522Z,51.325745
2022-11-14T08:48:27.740Z,51.325737
2022-11-14T08:49:27.513Z,51.325764
2022-11-14T08:50:27.446Z,51.325745
2022-11-14T08:51:27.441Z,51.325729
2022-11-14T08:52:27.477Z,51.325764
2022-11-14T08:53:27.396Z,51.325764
2022-11-14T08:54:27.476Z,51.325768
2022-11-14T08:55:27.411Z,51.325756
2022-11-14T08:56:27.379Z,51.325741
2022-11-14T08:57:27.332Z,51.325748
2022-11-14T08:58:27.587Z,51.325771
2022-11-14T08:59:27.384Z,51.325745
2022-11-14T09:00:27.328Z,51.325775
2022-11-14T09:01:27.313Z,51.325768
2022-11-14T09:02:27.275Z,51.325764
2022-11-14T09:03:27.282Z,51.325752
2022-11-14T09:04:27.315Z,51.325752
2022-11-14T09:05:27.342Z,51.325768
2022-11-14T09:06:27.205Z,51.325760
2022-11-14T09:07:27.181Z,51.325764
2022-11-14T09:08:27.400Z,51.325798
2022-11-14T09:09:27.210Z,51.325790
2022-11-14T09:10:27.210Z,51.325798
2022-11-14T09:11:27.122Z,51.325764
2022-11-14T09:12:27.130Z,51.325752
2022-11-14T09:13:27.179Z,51.325779
2022-11-14T09:14:27.122Z,51.325752
2022-11-14T09:15:27.081Z,51.325737
2022-11-14T09:16:27.047Z,51.325764
2022-11-14T09:17:27.010Z,51.325752
2022-11-14T09:18:27.364Z,51.325752
2022-11-14T09:19:27.033Z,51.325745
2022-11-14T09:20:32.245Z,51.325741
2022-11-14T09:21:29.131Z,51.325771
2022-11-14T09:22:26.892Z,51.325741
2022-11-14T09:23:27.086Z,51.325710
2022-11-14T09:24:26.891Z,51.325729
2022-11-14T09:25:26.854Z,51.325737
2022-11-14T09:26:26.854Z,51.325737
2022-11-14T09:27:26.828Z,51.325718
2022-11-14T09:28:26.904Z,51.325752
2022-11-14T09:29:26.824Z,51.325768
2022-11-14T09:30:26.782Z,51.325756
2022-11-14T09:31:26.826Z,51.325787
2022-11-14T09:32:26.741Z,51.325779
2022-11-14T09:33:26.906Z,51.325756
2022-11-14T09:34:26.766Z,51.325768
2022-11-14T09:35:26.679Z,51.325745
2022-11-14T09:36:26.711Z,51.325752
2022-11-14T09:37:26.673Z,51.325768
2022-11-14T09:38:26.645Z,51.325760
2022-11-14T09:39:26.643Z,51.325764
2022-11-14T09:40:26.600Z,51.325787
2022-11-14T09:41:26.577Z,51.325722
2022-11-14T09:42:26.606Z,51.325737
2022-11-14T09:43:26.586Z,51.325710
2022-11-14T09:44:26.590Z,51.325768
2022-11-14T09:45:26.523Z,51.325733
2022-11-14T09:46:26.501Z,51.325752
2022-11-14T09:47:26.491Z,51.325733
2022-11-14T09:48:26.488Z,51.325752
2022-11-14T09:49:26.524Z,51.325745
2022-11-14T09:50:26.452Z,51.325768
2022-11-14T09:51:26.429Z,51.325741
2022-11-14T09:52:26.411Z,51.325756
2022-11-14T09:53:26.449Z,51.325718
2022-11-14T09:54:26.425Z,51.325733
2022-11-14T09:55:26.350Z,51.325752
2022-11-14T09:56:26.347Z,51.325710
2022-11-14T09:57:26.341Z,51.325718
2022-11-14T09:58:26.302Z,51.325718
2022-11-14T09:59:26.353Z,51.325722
2022-11-14T10:00:26.303Z,51.325657
2022-11-14T10:01:26.332Z,51.325703
2022-11-14T10:02:26.267Z,51.325706
2022-11-14T10:03:26.270Z,51.325768
2022-11-14T10:04:29.303Z,51.325764
2022-11-14T10:05:26.202Z,51.325771
2022-11-14T10:06:26.171Z,51.325764
2022-11-14T10:07:26.264Z,51.325764
2022-11-14T10:08:26.137Z,51.325779
2022-11-14T10:09:30.485Z,51.325779
2022-11-14T10:10:27.108Z,51.325775
2022-11-14T10:11:26.098Z,51.325790
2022-11-14T10:12:26.063Z,51.325752
2022-11-14T10:13:26.075Z,51.325821
2022-11-14T10:14:26.072Z,51.325802
2022-11-14T10:15:29.865Z,51.325741
2022-11-14T10:16:28.019Z,51.325703
2022-11-14T10:17:26.014Z,51.325729
2022-11-14T10:18:25.984Z,51.325748
2022-11-14T10:19:25.995Z,51.325703
2022-11-14T10:20:25.946Z,51.325699
2022-11-14T10:21:25.930Z,51.325726
2022-11-14T10:22:25.916Z,51.325790
2022-11-14T10:23:25.911Z,51.325775
2022-11-14T10:24:25.916Z,51.325687
2022-11-14T10:25:25.899Z,51.325592
2022-11-14T10:26:25.852Z,51.325630
2022-11-14T10:27:25.859Z,51.325665
2022-11-14T10:28:25.813Z,51.325691
2022-11-14T10:29:25.823Z,51.325798
2022-11-14T10:30:26.785Z,51.325779
2022-11-14T10:31:25.788Z,51.325756
2022-11-14T10:32:25.747Z,51.325787
2022-11-14T10:33:25.744Z,51.325775
2022-11-14T10:34:25.755Z,51.325790
2022-11-14T10:35:26.583Z,51.325752
2022-11-14T10:36:25.695Z,51.325718
2022-11-14T10:37:25.683Z,51.325745
2022-11-14T10:38:25.684Z,51.325748
2022-11-14T10:39:25.671Z,51.325768
2022-11-14T10:40:25.634Z,51.325760
2022-11-14T10:41:49.778Z,51.325817
2022-11-14T10:42:27.595Z,51.325802
2022-11-14T10:43:25.636Z,51.325733
2022-11-14T10:44:25.593Z,51.325768
2022-11-14T10:45:25.602Z,51.325764
2022-11-14T10:46:25.546Z,51.325775
2022-11-14T10:47:25.520Z,51.325752
2022-11-14T10:48:25.495Z,51.325768
2022-11-14T10:49:25.504Z,51.325817
2022-11-14T10:50:25.456Z,51.325802
2022-11-14T10:51:25.483Z,51.325760
2022-11-14T10:52:25.442Z,51.325787
2022-11-14T10:53:25.411Z,51.325787
2022-11-14T10:54:25.422Z,51.325783
2022-11-14T10:55:49.712Z,51.325691
2022-11-14T10:56:27.371Z,51.325756
2022-11-14T10:57:25.358Z,51.325790
2022-11-14T10:58:25.337Z,51.325813
2022-11-14T10:59:25.372Z,51.325748
2022-11-14T11:00:25.299Z,51.325718
2022-11-14T11:01:25.322Z,51.325733
2022-11-14T11:02:25.266Z,51.325771
2022-11-14T11:03:25.260Z,51.325752
2022-11-14T11:04:25.450Z,51.325787
2022-11-14T11:05:25.243Z,51.325764
2022-11-14T11:06:25.216Z,51.325855
2022-11-14T11:07:25.267Z,51.325836
2022-11-14T11:08:53.270Z,51.325768
2022-11-14T11:09:27.328Z,51.325718
2022-11-14T11:10:25.128Z,51.325745
2022-11-14T11:11:25.139Z,51.325752
2022-11-14T11:12:25.152Z,51.325714
2022-11-14T11:13:25.091Z,51.325703
2022-11-14T11:14:25.096Z,51.325741
2022-11-14T11:15:25.060Z,51.325657
2022-11-14T11:16:25.045Z,51.325542
2022-11-14T11:17:29.503Z,51.325706
2022-11-14T11:18:27.237Z,51.325623
2022-11-14T11:19:25.039Z,51.325729
2022-11-14T11:20:24.977Z,51.325817
2022-11-14T11:21:25.061Z,51.325802
2022-11-14T11:22:24.949Z,51.325829
2022-11-14T11:23:24.916Z,51.325783
2022-11-14T11:24:24.952Z,51.325794
2022-11-14T11:25:24.875Z,51.325722
2022-11-14T11:26:24.865Z,51.325726
2022-11-14T11:27:24.845Z,51.325771
2022-11-14T11:28:24.831Z,51.325790
2022-11-14T11:29:24.850Z,51.325760
2022-11-14T11:30:24.804Z,51.325809